Stevensville, MD

10:48 PM EDT on May 25, 2018 (GMT -0400)
Stevensville

Weather History for KW29 - February, 2013

Change the Weather History Date:

Friday, February 8, 2013

  Actual Average (WUND) Record (WUND)
Temperature  
Mean Temperature 36 °F -  
Max Temperature 39 °F - - (-1)
Min Temperature 33 °F - - (-1)
Degree Days  
Heating Degree Days 29    
Moisture  
Dew Point 34 °F    
Average Humidity 92    
Maximum Humidity 100    
Minimum Humidity 65    
Precipitation  
Precipitation 0.00 in - - ()
Sea Level Pressure  
Sea Level Pressure 29.89 in    
Wind  
Wind Speed 8 mph (NNW)    
Max Wind Speed 30 mph    
Max Gust Speed 40 mph    
Visibility 7 miles    
Events      
Averages and records for this station are not official NWS values.
T = Trace of Precipitation, MM = Missing Value Source: NWS Daily Summary

Daily Weather History Graph

Daily Weather History Graph

Search for Another Location

Airport or City:

Astronomy

Feb. 08, 2013 Rise Set
Actual Time 7:04 AM EST 5:35 PM EST
Civil Twilight 6:36 AM EST 6:02 PM EST
Nautical Twilight 6:05 AM EST 6:34 PM EST
Astronomical Twilight 5:34 AM EST 7:05 PM EST
Moon 5:31 AM EST (2/8) 4:06 PM EST (2/8)
Length of Visible Light 11h 25m
Length of Day
10h 30m
Waning Crescent, 3% of the Moon is Illuminated
Feb 8
Waning Crescent
Feb 10
New
Feb 17
First Quarter
Feb 25
Full
Mar 4
Last Quarter

Hourly Weather History & Observations

Time (EST) Temp. Windchill Dew Point Humidity Pressure Visibility Wind Dir Wind Speed Gust Speed Precip Events Conditions
12:02 AM 33.8 °F 29.6 °F 26.6 °F 75% 30.22 in 10.0 mi NE 4.6 mph - N/A   Mostly Cloudy
12:22 AM 33.8 °F 28.6 °F 26.6 °F 75% 30.21 in 10.0 mi ENE 5.8 mph - N/A   Mostly Cloudy
12:42 AM 33.8 °F 28.6 °F 26.6 °F 75% 30.19 in 10.0 mi ENE 5.8 mph - N/A   Scattered Clouds
1:02 AM 35.6 °F 30.7 °F 28.4 °F 75% 30.18 in 10.0 mi ENE 5.8 mph - N/A   Mostly Cloudy
1:22 AM 35.6 °F 29.9 °F 28.4 °F 75% 30.17 in 10.0 mi ENE 6.9 mph - N/A   Mostly Cloudy
1:42 AM 35.6 °F 30.7 °F 28.4 °F 75% 30.16 in 10.0 mi ENE 5.8 mph - N/A   Overcast
2:02 AM 35.6 °F 31.7 °F 28.4 °F 75% 30.15 in 10.0 mi ENE 4.6 mph - N/A   Overcast
2:22 AM 35.6 °F 31.7 °F 30.2 °F 81% 30.13 in 10.0 mi ENE 4.6 mph - N/A   Overcast
2:42 AM 33.8 °F 29.6 °F 32.0 °F 93% 30.12 in 7.0 mi NE 4.6 mph - N/A   Overcast
3:02 AM 33.8 °F 30.8 °F 32.0 °F 93% 30.11 in 7.0 mi NE 3.5 mph - N/A   Overcast
3:22 AM 33.8 °F 30.8 °F 32.0 °F 93% 30.09 in 7.0 mi NE 3.5 mph - N/A   Overcast
3:42 AM 33.8 °F 29.6 °F 32.0 °F 93% 30.08 in 7.0 mi NE 4.6 mph - N/A   Overcast
4:02 AM 33.8 °F 29.6 °F 32.0 °F 93% 30.07 in 5.0 mi NE 4.6 mph - N/A   Overcast
4:42 AM 35.6 °F - 33.8 °F 93% 30.06 in 7.0 mi Calm Calm - N/A   Overcast
5:02 AM 33.8 °F - 33.8 °F 100% 30.05 in 5.0 mi Calm Calm - N/A   Overcast
5:22 AM 35.6 °F 31.7 °F 35.6 °F 100% 30.03 in 7.0 mi North 4.6 mph - N/A   Overcast
5:42 AM 35.6 °F 30.7 °F 35.6 °F 100% 30.02 in 5.0 mi North 5.8 mph - N/A   Overcast
6:02 AM 35.6 °F 29.9 °F 35.6 °F 100% 30.01 in 5.0 mi North 6.9 mph - N/A   Overcast
7:02 AM 35.6 °F 29.2 °F 35.6 °F 100% 29.98 in 3.0 mi North 8.1 mph - N/A   Overcast
7:23 AM 35.6 °F 29.2 °F 35.6 °F 100% 29.97 in 3.0 mi North 8.1 mph - N/A   Overcast
7:43 AM 35.6 °F 32.8 °F 35.6 °F 100% 29.97 in 2.5 mi North 3.5 mph - N/A   Overcast
8:53 AM 35.6 °F 29.9 °F 35.6 °F 100% 29.91 in 2.5 mi NNW 6.9 mph - N/A   Overcast
9:32 AM 37.4 °F 32.1 °F 37.4 °F 100% 29.87 in 5.0 mi North 6.9 mph - N/A   Overcast
9:52 AM 39.2 °F 33.0 °F 39.2 °F 100% 29.85 in 7.0 mi North 9.2 mph 16.1 mph N/A   Overcast
10:12 AM 39.2 °F 33.6 °F 39.2 °F 100% 29.84 in 5.0 mi North 8.1 mph - N/A   Overcast
10:32 AM 39.2 °F 33.0 °F 39.2 °F 100% 29.84 in 7.0 mi North 9.2 mph - N/A   Overcast
10:52 AM 37.4 °F 28.9 °F 37.4 °F 100% 29.83 in 5.0 mi North 13.8 mph 18.4 mph N/A   Overcast
11:12 AM 37.4 °F 29.3 °F 37.4 °F 100% 29.82 in 3.0 mi NNW 12.7 mph 18.4 mph N/A   Overcast
11:33 AM 37.4 °F 29.8 °F 37.4 °F 100% 29.80 in 5.0 mi North 11.5 mph - N/A   Overcast
11:53 AM 37.4 °F 29.3 °F 37.4 °F 100% 29.79 in 4.0 mi NNW 12.7 mph - N/A   Overcast
12:13 PM 37.4 °F 30.3 °F 37.4 °F 100% 29.78 in 7.0 mi North 10.4 mph - N/A   Overcast
12:33 PM 37.4 °F 30.8 °F 37.4 °F 100% 29.77 in 7.0 mi NNW 9.2 mph - N/A   Overcast
12:53 PM 37.4 °F 29.8 °F 37.4 °F 100% 29.75 in 3.0 mi North 11.5 mph 17.3 mph N/A   Overcast
1:13 PM 37.4 °F 30.3 °F 37.4 °F 100% 29.75 in 1.8 mi North 10.4 mph 17.3 mph N/A   Overcast
1:33 PM 37.4 °F 29.3 °F 37.4 °F 100% 29.74 in 4.0 mi NNW 12.7 mph 18.4 mph N/A   Overcast
1:53 PM 37.4 °F 29.8 °F 37.4 °F 100% 29.74 in 2.0 mi NW 11.5 mph - N/A   Overcast
2:13 PM 37.4 °F 29.8 °F 37.4 °F 100% 29.74 in 2.0 mi NNW 11.5 mph 18.4 mph N/A   Overcast
2:33 PM 37.4 °F 28.9 °F 37.4 °F 100% 29.72 in 3.0 mi NNW 13.8 mph 18.4 mph N/A   Overcast
2:53 PM 39.2 °F 32.0 °F 39.2 °F 100% 29.70 in 5.0 mi North 11.5 mph 19.6 mph N/A   Overcast
3:13 PM 37.4 °F 29.8 °F 37.4 °F 100% 29.73 in 10.0 mi NW 11.5 mph 16.1 mph N/A   Overcast
3:33 PM 37.4 °F 30.3 °F 37.4 °F 100% 29.73 in 10.0 mi NNW 10.4 mph 16.1 mph N/A   Overcast
3:53 PM 37.4 °F 29.8 °F 37.4 °F 100% 29.74 in 10.0 mi NNW 11.5 mph 17.3 mph N/A   Overcast
4:13 PM 37.4 °F 31.4 °F 37.4 °F 100% 29.73 in 10.0 mi NNW 8.1 mph - N/A   Mostly Cloudy
4:33 PM 37.4 °F 31.4 °F 37.4 °F 100% 29.74 in 5.0 mi NW 8.1 mph - N/A   Mostly Cloudy
4:53 PM 37.4 °F 32.1 °F 37.4 °F 100% 29.75 in 3.0 mi NW 6.9 mph - N/A   Overcast
5:13 PM 37.4 °F 30.3 °F 37.4 °F 100% 29.75 in 5.0 mi NW 10.4 mph - N/A   Overcast
5:33 PM 37.4 °F 30.8 °F 37.4 °F 100% 29.76 in 5.0 mi NW 9.2 mph - N/A   Overcast
5:53 PM 37.4 °F 30.8 °F 37.4 °F 100% 29.76 in 4.0 mi NNW 9.2 mph - N/A   Overcast
6:33 PM 37.4 °F 32.1 °F 37.4 °F 100% 29.77 in 4.0 mi WNW 6.9 mph - N/A   Overcast
6:53 PM 37.4 °F 30.3 °F 37.4 °F 100% 29.77 in 5.0 mi WNW 10.4 mph - N/A   Overcast
7:13 PM 37.4 °F 30.8 °F 37.4 °F 100% 29.78 in 5.0 mi WNW 9.2 mph - N/A   Overcast
7:33 PM 37.4 °F 29.8 °F 35.6 °F 93% 29.78 in 7.0 mi WNW 11.5 mph - N/A   Overcast
7:54 PM 37.4 °F 30.8 °F 35.6 °F 93% 29.79 in 5.0 mi WNW 9.2 mph - N/A   Mostly Cloudy
8:14 PM 37.4 °F 30.3 °F 35.6 °F 93% 29.79 in 5.0 mi WNW 10.4 mph - N/A   Mostly Cloudy
8:34 PM 37.4 °F 29.3 °F 35.6 °F 93% 29.79 in 7.0 mi WNW 12.7 mph 17.3 mph N/A   Overcast
8:54 PM 39.2 °F 31.6 °F 35.6 °F 87% 29.80 in 7.0 mi WNW 12.7 mph 20.7 mph N/A   Mostly Cloudy
9:14 PM 39.2 °F 29.0 °F 33.8 °F 81% 29.80 in 10.0 mi WNW 21.9 mph 28.8 mph N/A   Overcast
9:34 PM 39.2 °F 29.0 °F 32.0 °F 75% 29.81 in 10.0 mi NW 21.9 mph 28.8 mph N/A   Overcast
9:54 PM 37.4 °F 26.1 °F 30.2 °F 75% 29.82 in 10.0 mi NW 24.2 mph 31.1 mph N/A   Overcast
10:14 PM 37.4 °F 25.2 °F 28.4 °F 70% 29.82 in 10.0 mi WNW 28.8 mph 36.8 mph N/A   Overcast
10:34 PM 37.4 °F 25.9 °F 28.4 °F 70% 29.84 in 10.0 mi NW 25.3 mph 34.5 mph N/A   Mostly Cloudy
10:54 PM 37.4 °F 25.9 °F 26.6 °F 65% 29.84 in 10.0 mi WNW 25.3 mph 38.0 mph N/A   Overcast
11:14 PM 35.6 °F 24.8 °F 26.6 °F 70% 29.86 in 10.0 mi WNW 19.6 mph 26.5 mph N/A   Overcast
11:34 PM 35.6 °F 22.5 °F 26.6 °F 70% 29.86 in 10.0 mi WNW 29.9 mph 38.0 mph N/A   Mostly Cloudy
11:54 PM 35.6 °F 22.7 °F 24.8 °F 65% 29.87 in 10.0 mi WNW 28.8 mph 40.3 mph N/A   Overcast